sensor_id;sensor_type;location;lat;lon;timestamp;pressure;altitude;pressure_sealevel;temperature;humidity
41688;BME280;27371;42.686;23.362;2024-02-23T00:02:19;163510.38;;;5.04;80.75
41688;BME280;27371;42.686;23.362;2024-02-23T00:04:45;163529.03;;;5.11;79.77
41688;BME280;27371;42.686;23.362;2024-02-23T00:07:11;163535.69;;;5.13;79.47
41688;BME280;27371;42.686;23.362;2024-02-23T00:09:37;163560.97;;;5.23;79.31
41688;BME280;27371;42.686;23.362;2024-02-23T00:12:03;163560.97;;;5.23;78.96
41688;BME280;27371;42.686;23.362;2024-02-23T00:14:29;163530.34;;;5.11;78.83
41688;BME280;27371;42.686;23.362;2024-02-23T00:16:58;163498.41;;;4.99;78.94
41688;BME280;27371;42.686;23.362;2024-02-23T00:19:24;163437.13;;;4.76;79.66
41688;BME280;27371;42.686;23.362;2024-02-23T00:21:50;163415.84;;;4.67;80.28
41688;BME280;27371;42.686;23.362;2024-02-23T00:24:17;163406.53;;;4.64;80.61
41688;BME280;27371;42.686;23.362;2024-02-23T00:26:46;163421.19;;;4.69;80.84
41688;BME280;27371;42.686;23.362;2024-02-23T00:29:11;163409.19;;;4.65;80.64
41688;BME280;27371;42.686;23.362;2024-02-23T00:31:40;163369.28;;;4.50;80.73
41688;BME280;27371;42.686;23.362;2024-02-23T00:34:10;163433.19;;;4.74;80.55
41688;BME280;27371;42.686;23.362;2024-02-23T00:36:39;163447.81;;;4.80;80.45
41688;BME280;27371;42.686;23.362;2024-02-23T00:39:06;163482.41;;;4.93;79.83
41688;BME280;27371;42.686;23.362;2024-02-23T00:41:35;163449.13;;;4.80;78.90
41688;BME280;27371;42.686;23.362;2024-02-23T00:44:04;163351.94;;;4.43;79.55
41688;BME280;27371;42.686;23.362;2024-02-23T00:46:30;163353.25;;;4.43;81.44
41688;BME280;27371;42.686;23.362;2024-02-23T00:48:55;163370.59;;;4.50;82.08
41688;BME280;27371;42.686;23.362;2024-02-23T00:51:21;163387.88;;;4.57;81.99
41688;BME280;27371;42.686;23.362;2024-02-23T00:53:47;163433.19;;;4.74;81.25
41688;BME280;27371;42.686;23.362;2024-02-23T00:56:12;163438.47;;;4.76;80.61
41688;BME280;27371;42.686;23.362;2024-02-23T00:58:41;163506.41;;;5.02;80.01
41688;BME280;27371;42.686;23.362;2024-02-23T01:03:41;163467.75;;;4.87;78.75
41688;BME280;27371;42.686;23.362;2024-02-23T01:06:07;163552.97;;;5.20;78.58
41688;BME280;27371;42.686;23.362;2024-02-23T01:08:32;163568.97;;;5.26;78.44
41688;BME280;27371;42.686;23.362;2024-02-23T01:10:58;163565.00;;;5.25;78.39
41688;BME280;27371;42.686;23.362;2024-02-23T01:13:23;163591.63;;;5.35;78.07
41688;BME280;27371;42.686;23.362;2024-02-23T01:15:49;163598.31;;;5.38;77.91
41688;BME280;27371;42.686;23.362;2024-02-23T01:18:15;163606.28;;;5.41;77.17
41688;BME280;27371;42.686;23.362;2024-02-23T01:20:40;163622.25;;;5.47;76.92
41688;BME280;27371;42.686;23.362;2024-02-23T01:23:06;163628.94;;;5.49;76.30
41688;BME280;27371;42.686;23.362;2024-02-23T01:25:31;163604.91;;;5.40;76.27
41688;BME280;27371;42.686;23.362;2024-02-23T01:27:57;163626.22;;;5.48;76.15
41688;BME280;27371;42.686;23.362;2024-02-23T01:30:22;163627.59;;;5.49;75.63
41688;BME280;27371;42.686;23.362;2024-02-23T01:32:56;163539.66;;;5.15;75.36
41688;BME280;27371;42.686;23.362;2024-02-23T01:35:22;163425.16;;;4.71;77.33
41688;BME280;27371;42.686;23.362;2024-02-23T01:37:47;163355.94;;;4.44;80.15
41688;BME280;27371;42.686;23.362;2024-02-23T01:40:13;163361.25;;;4.46;81.29
41688;BME280;27371;42.686;23.362;2024-02-23T01:42:39;163395.84;;;4.60;81.20
41688;BME280;27371;42.686;23.362;2024-02-23T01:45:05;163422.50;;;4.70;80.87
41688;BME280;27371;42.686;23.362;2024-02-23T01:47:30;163465.09;;;4.86;80.34
41688;BME280;27371;42.686;23.362;2024-02-23T01:49:58;163473.09;;;4.89;79.81
41688;BME280;27371;42.686;23.362;2024-02-23T01:52:24;163518.34;;;5.07;79.61
41688;BME280;27371;42.686;23.362;2024-02-23T01:54:50;163533.00;;;5.12;79.16
41688;BME280;27371;42.686;23.362;2024-02-23T01:57:17;163539.66;;;5.15;79.16
41688;BME280;27371;42.686;23.362;2024-02-23T01:59:42;163565.00;;;5.25;78.87
41688;BME280;27371;42.686;23.362;2024-02-23T02:02:08;163568.97;;;5.26;78.32
41688;BME280;27371;42.686;23.362;2024-02-23T02:04:34;163579.63;;;5.30;78.21
41688;BME280;27371;42.686;23.362;2024-02-23T02:07:00;163584.97;;;5.32;78.29
41688;BME280;27371;42.686;23.362;2024-02-23T02:09:26;163541.03;;;5.16;78.02
41688;BME280;27371;42.686;23.362;2024-02-23T02:11:53;163594.28;;;5.36;78.06
41688;BME280;27371;42.686;23.362;2024-02-23T02:14:19;163596.94;;;5.37;78.08
41688;BME280;27371;42.686;23.362;2024-02-23T02:16:45;163603.59;;;5.40;78.31
41688;BME280;27371;42.686;23.362;2024-02-23T02:19:11;163602.28;;;5.39;78.26
41688;BME280;27371;42.686;23.362;2024-02-23T02:21:37;163583.59;;;5.32;77.45
41688;BME280;27371;42.686;23.362;2024-02-23T02:24:03;163497.03;;;4.99;77.20
41688;BME280;27371;42.686;23.362;2024-02-23T02:26:29;163387.88;;;4.57;79.36
41688;BME280;27371;42.686;23.362;2024-02-23T02:28:55;163340.00;;;4.38;81.83
41688;BME280;27371;42.686;23.362;2024-02-23T02:31:21;163305.38;;;4.25;83.77
41688;BME280;27371;42.686;23.362;2024-02-23T02:33:46;163318.69;;;4.30;84.16
41688;BME280;27371;42.686;23.362;2024-02-23T02:36:12;163323.97;;;4.32;84.07
41688;BME280;27371;42.686;23.362;2024-02-23T02:38:37;163351.94;;;4.43;83.74
41688;BME280;27371;42.686;23.362;2024-02-23T02:41:03;163335.97;;;4.37;83.30
41688;BME280;27371;42.686;23.362;2024-02-23T02:43:29;163410.50;;;4.65;82.78
41688;BME280;27371;42.686;23.362;2024-02-23T02:45:54;163406.53;;;4.64;82.64
41688;BME280;27371;42.686;23.362;2024-02-23T02:48:20;163453.09;;;4.82;82.05
41688;BME280;27371;42.686;23.362;2024-02-23T02:50:45;163471.78;;;4.89;81.54
41688;BME280;27371;42.686;23.362;2024-02-23T02:53:11;163473.09;;;4.89;81.21
41688;BME280;27371;42.686;23.362;2024-02-23T02:55:41;163470.44;;;4.88;81.12
41688;BME280;27371;42.686;23.362;2024-02-23T02:58:06;163459.78;;;4.84;81.29
41688;BME280;27371;42.686;23.362;2024-02-23T03:00:32;163505.09;;;5.02;81.12
41688;BME280;27371;42.686;23.362;2024-02-23T03:02:57;163530.34;;;5.11;81.05
41688;BME280;27371;42.686;23.362;2024-02-23T03:05:41;163546.31;;;5.18;81.04
41688;BME280;27371;42.686;23.362;2024-02-23T03:08:07;163558.31;;;5.22;80.86
41688;BME280;27371;42.686;23.362;2024-02-23T03:10:32;163550.34;;;5.19;80.57
41688;BME280;27371;42.686;23.362;2024-02-23T03:12:58;163483.78;;;4.94;79.68
41688;BME280;27371;42.686;23.362;2024-02-23T03:15:23;163474.41;;;4.90;79.12
41688;BME280;27371;42.686;23.362;2024-02-23T03:17:49;163340.00;;;4.38;80.72
41688;BME280;27371;42.686;23.362;2024-02-23T03:20:15;163351.94;;;4.43;83.46
41688;BME280;27371;42.686;23.362;2024-02-23T03:22:41;163329.31;;;4.34;85.05
41688;BME280;27371;42.686;23.362;2024-02-23T03:25:07;163320.00;;;4.31;85.98
41688;BME280;27371;42.686;23.362;2024-02-23T03:27:36;163242.81;;;4.01;85.82
41688;BME280;27371;42.686;23.362;2024-02-23T03:30:05;163326.66;;;4.33;85.65
41688;BME280;27371;42.686;23.362;2024-02-23T03:32:33;163375.94;;;4.52;85.37
41688;BME280;27371;42.686;23.362;2024-02-23T03:35:03;163410.50;;;4.65;84.88
41688;BME280;27371;42.686;23.362;2024-02-23T03:37:29;163431.81;;;4.74;84.55
41688;BME280;27371;42.686;23.362;2024-02-23T03:39:55;163447.81;;;4.80;84.02
41688;BME280;27371;42.686;23.362;2024-02-23T03:42:20;163446.44;;;4.79;83.82
41688;BME280;27371;42.686;23.362;2024-02-23T03:44:46;163455.81;;;4.83;83.51
41688;BME280;27371;42.686;23.362;2024-02-23T03:47:11;163458.44;;;4.84;83.30
41688;BME280;27371;42.686;23.362;2024-02-23T03:49:37;163457.13;;;4.83;82.97
41688;BME280;27371;42.686;23.362;2024-02-23T03:52:04;163482.41;;;4.93;82.83
41688;BME280;27371;42.686;23.362;2024-02-23T03:54:30;163471.78;;;4.89;82.68
41688;BME280;27371;42.686;23.362;2024-02-23T03:56:56;163435.81;;;4.75;82.44
41688;BME280;27371;42.686;23.362;2024-02-23T03:59:22;163510.38;;;5.04;82.34
41688;BME280;27371;42.686;23.362;2024-02-23T04:01:47;163513.06;;;5.05;81.99
41688;BME280;27371;42.686;23.362;2024-02-23T04:04:13;163497.03;;;4.99;81.15
41688;BME280;27371;42.686;23.362;2024-02-23T04:06:39;163414.50;;;4.67;80.41
41688;BME280;27371;42.686;23.362;2024-02-23T04:09:04;163350.63;;;4.42;82.21
41688;BME280;27371;42.686;23.362;2024-02-23T04:11:31;163293.38;;;4.20;84.65
41688;BME280;27371;42.686;23.362;2024-02-23T04:13:56;163281.38;;;4.16;86.26
41688;BME280;27371;42.686;23.362;2024-02-23T04:16:23;163300.03;;;4.23;86.61
41688;BME280;27371;42.686;23.362;2024-02-23T04:18:50;163268.06;;;4.11;85.67
41688;BME280;27371;42.686;23.362;2024-02-23T04:21:15;163341.31;;;4.39;85.47
41688;BME280;27371;42.686;23.362;2024-02-23T04:23:43;163357.28;;;4.45;84.19
41688;BME280;27371;42.686;23.362;2024-02-23T04:26:08;163414.50;;;4.67;83.28
41688;BME280;27371;42.686;23.362;2024-02-23T04:28:37;163426.50;;;4.72;82.67
41688;BME280;27371;42.686;23.362;2024-02-23T04:31:03;163434.50;;;4.75;82.45
41688;BME280;27371;42.686;23.362;2024-02-23T04:33:28;163422.50;;;4.70;82.16
41688;BME280;27371;42.686;23.362;2024-02-23T04:35:54;163433.19;;;4.74;82.26
41688;BME280;27371;42.686;23.362;2024-02-23T04:38:19;163441.16;;;4.77;82.26
41688;BME280;27371;42.686;23.362;2024-02-23T04:40:45;163419.84;;;4.69;81.95
41688;BME280;27371;42.686;23.362;2024-02-23T04:43:10;163418.47;;;4.68;82.34
41688;BME280;27371;42.686;23.362;2024-02-23T04:45:36;163410.50;;;4.65;82.23
41688;BME280;27371;42.686;23.362;2024-02-23T04:48:02;163417.16;;;4.68;82.42
41688;BME280;27371;42.686;23.362;2024-02-23T04:50:29;163395.84;;;4.60;82.42
41688;BME280;27371;42.686;23.362;2024-02-23T04:52:54;163422.50;;;4.70;82.97
41688;BME280;27371;42.686;23.362;2024-02-23T04:55:20;163449.13;;;4.80;82.82
41688;BME280;27371;42.686;23.362;2024-02-23T04:57:45;163378.56;;;4.53;80.86
41688;BME280;27371;42.686;23.362;2024-02-23T05:00:11;163304.06;;;4.24;81.79
41688;BME280;27371;42.686;23.362;2024-02-23T05:02:37;163249.47;;;4.04;83.80
41688;BME280;27371;42.686;23.362;2024-02-23T05:05:06;163240.16;;;4.00;84.73
41688;BME280;27371;42.686;23.362;2024-02-23T05:07:32;163198.91;;;3.84;86.13
41688;BME280;27371;42.686;23.362;2024-02-23T05:09:57;163210.91;;;3.89;86.94
41688;BME280;27371;42.686;23.362;2024-02-23T05:12:23;163166.94;;;3.72;87.31
41688;BME280;27371;42.686;23.362;2024-02-23T05:14:52;163264.09;;;4.09;86.52
41688;BME280;27371;42.686;23.362;2024-02-23T05:17:17;163298.72;;;4.22;85.83
41688;BME280;27371;42.686;23.362;2024-02-23T05:19:43;163357.28;;;4.45;85.18
41688;BME280;27371;42.686;23.362;2024-02-23T05:22:09;163411.88;;;4.66;84.59
41688;BME280;27371;42.686;23.362;2024-02-23T05:24:34;163419.84;;;4.69;83.34
41688;BME280;27371;42.686;23.362;2024-02-23T05:27:00;163583.59;;;5.32;81.14
41688;BME280;27371;42.686;23.362;2024-02-23T05:29:28;163533.00;;;5.12;78.09
41688;BME280;27371;42.686;23.362;2024-02-23T05:31:54;163409.19;;;4.65;78.98
41688;BME280;27371;42.686;23.362;2024-02-23T05:34:20;163260.09;;;4.08;81.40
41688;BME280;27371;42.686;23.362;2024-02-23T05:36:46;163296.03;;;4.21;83.77
41688;BME280;27371;42.686;23.362;2024-02-23T05:39:13;163280.06;;;4.15;84.98
41688;BME280;27371;42.686;23.362;2024-02-23T05:41:41;163296.03;;;4.21;85.26
41688;BME280;27371;42.686;23.362;2024-02-23T05:44:07;163325.31;;;4.33;84.77
41688;BME280;27371;42.686;23.362;2024-02-23T05:46:33;163347.97;;;4.41;84.83
41688;BME280;27371;42.686;23.362;2024-02-23T05:48:59;163410.50;;;4.65;83.85
41688;BME280;27371;42.686;23.362;2024-02-23T05:51:25;163519.72;;;5.07;82.54
41688;BME280;27371;42.686;23.362;2024-02-23T05:53:50;163619.56;;;5.46;81.05
41688;BME280;27371;42.686;23.362;2024-02-23T05:56:16;163724.81;;;5.86;78.95
41688;BME280;27371;42.686;23.362;2024-02-23T05:58:41;163819.47;;;6.22;77.11
41688;BME280;27371;42.686;23.362;2024-02-23T06:01:07;163906.09;;;6.56;76.33
41688;BME280;27371;42.686;23.362;2024-02-23T06:03:33;164004.78;;;6.94;74.17
41688;BME280;27371;42.686;23.362;2024-02-23T06:05:58;164023.47;;;7.01;73.08
41688;BME280;27371;42.686;23.362;2024-02-23T06:08:24;164059.47;;;7.14;70.80
41688;BME280;27371;42.686;23.362;2024-02-23T06:10:49;164111.47;;;7.34;69.98
41688;BME280;27371;42.686;23.362;2024-02-23T06:13:15;164142.13;;;7.46;69.55
41688;BME280;27371;42.686;23.362;2024-02-23T06:15:40;164144.81;;;7.47;69.41
41688;BME280;27371;42.686;23.362;2024-02-23T06:18:07;164071.44;;;7.19;69.49
41688;BME280;27371;42.686;23.362;2024-02-23T06:20:33;164110.13;;;7.34;68.33
41688;BME280;27371;42.686;23.362;2024-02-23T06:22:58;163990.13;;;6.88;69.78
41688;BME280;27371;42.686;23.362;2024-02-23T06:25:24;163912.78;;;6.58;71.60
41688;BME280;27371;42.686;23.362;2024-02-23T06:27:49;163862.13;;;6.39;72.33
41688;BME280;27371;42.686;23.362;2024-02-23T06:30:15;163874.16;;;6.43;72.76
41688;BME280;27371;42.686;23.362;2024-02-23T06:32:40;163924.78;;;6.63;72.64
41688;BME280;27371;42.686;23.362;2024-02-23T06:35:06;163920.78;;;6.61;72.64
41688;BME280;27371;42.686;23.362;2024-02-23T06:37:32;164024.78;;;7.01;71.30
41688;BME280;27371;42.686;23.362;2024-02-23T06:39:58;164066.13;;;7.17;70.38
41688;BME280;27371;42.686;23.362;2024-02-23T06:42:24;164044.81;;;7.09;70.30
41688;BME280;27371;42.686;23.362;2024-02-23T06:44:50;164172.78;;;7.58;69.33
41688;BME280;27371;42.686;23.362;2024-02-23T06:47:15;164246.19;;;7.86;67.30
41688;BME280;27371;42.686;23.362;2024-02-23T06:49:42;164295.56;;;8.05;67.29
41688;BME280;27371;42.686;23.362;2024-02-23T06:52:08;164275.53;;;7.97;66.67
41688;BME280;27371;42.686;23.362;2024-02-23T06:54:34;164184.81;;;7.63;67.18
41688;BME280;27371;42.686;23.362;2024-02-23T06:57:00;164139.47;;;7.45;68.66
41688;BME280;27371;42.686;23.362;2024-02-23T06:59:25;164274.22;;;7.97;68.15
41688;BME280;27371;42.686;23.362;2024-02-23T07:01:51;164351.56;;;8.26;66.26
41688;BME280;27371;42.686;23.362;2024-02-23T07:04:17;164376.94;;;8.36;65.29
41688;BME280;27371;42.686;23.362;2024-02-23T07:06:44;164438.38;;;8.60;64.66
41688;BME280;27371;42.686;23.362;2024-02-23T07:09:10;164529.16;;;8.95;63.62
41688;BME280;27371;42.686;23.362;2024-02-23T07:11:39;164627.97;;;9.32;62.73
41688;BME280;27371;42.686;23.362;2024-02-23T07:14:07;164670.72;;;9.49;62.27
41688;BME280;27371;42.686;23.362;2024-02-23T07:16:38;164706.75;;;9.63;61.68
41688;BME280;27371;42.686;23.362;2024-02-23T07:19:05;164733.44;;;9.73;60.76
41688;BME280;27371;42.686;23.362;2024-02-23T07:21:30;164726.75;;;9.70;60.79
41688;BME280;27371;42.686;23.362;2024-02-23T07:23:56;164749.50;;;9.79;61.00
41688;BME280;27371;42.686;23.362;2024-02-23T07:26:22;164766.84;;;9.86;61.24
41688;BME280;27371;42.686;23.362;2024-02-23T07:28:48;164794.91;;;9.96;61.28
41688;BME280;27371;42.686;23.362;2024-02-23T07:31:14;164813.63;;;10.03;60.44
41688;BME280;27371;42.686;23.362;2024-02-23T07:33:42;164864.41;;;10.23;60.32
41688;BME280;27371;42.686;23.362;2024-02-23T07:36:16;164830.97;;;10.10;60.42
41688;BME280;27371;42.686;23.362;2024-02-23T07:38:42;164852.34;;;10.18;61.87
41688;BME280;27371;42.686;23.362;2024-02-23T07:41:10;164896.47;;;10.35;60.77
41688;BME280;27371;42.686;23.362;2024-02-23T07:43:36;164812.25;;;10.03;61.49
41688;BME280;27371;42.686;23.362;2024-02-23T07:46:02;164762.81;;;9.84;61.84
41688;BME280;27371;42.686;23.362;2024-02-23T07:48:28;164726.75;;;9.70;63.41
41688;BME280;27371;42.686;23.362;2024-02-23T07:50:53;164729.47;;;9.71;64.36
41688;BME280;27371;42.686;23.362;2024-02-23T07:53:19;164788.22;;;9.94;64.46
41688;BME280;27371;42.686;23.362;2024-02-23T07:55:45;164816.28;;;10.04;64.42
41688;BME280;27371;42.686;23.362;2024-02-23T07:58:10;164889.81;;;10.33;63.67
41688;BME280;27371;42.686;23.362;2024-02-23T08:00:36;164980.69;;;10.67;62.95
41688;BME280;27371;42.686;23.362;2024-02-23T08:03:04;165060.88;;;10.98;61.54
41688;BME280;27371;42.686;23.362;2024-02-23T08:05:29;165186.50;;;11.46;60.04
41688;BME280;27371;42.686;23.362;2024-02-23T08:07:55;165305.59;;;11.92;58.45
41688;BME280;27371;42.686;23.362;2024-02-23T08:10:21;165349.72;;;12.09;56.69
41688;BME280;27371;42.686;23.362;2024-02-23T08:12:47;165345.69;;;12.07;57.12
41688;BME280;27371;42.686;23.362;2024-02-23T08:15:12;165383.19;;;12.21;57.46
41688;BME280;27371;42.686;23.362;2024-02-23T08:17:38;165375.13;;;12.18;57.78
41688;BME280;27371;42.686;23.362;2024-02-23T08:20:04;165407.25;;;12.31;57.82
41688;BME280;27371;42.686;23.362;2024-02-23T08:22:30;165516.94;;;12.73;56.72
41688;BME280;27371;42.686;23.362;2024-02-23T08:24:56;165566.47;;;12.91;55.95
41688;BME280;27371;42.686;23.362;2024-02-23T08:27:21;165531.66;;;12.78;55.64
41688;BME280;27371;42.686;23.362;2024-02-23T08:29:47;165603.91;;;13.06;56.11
41688;BME280;27371;42.686;23.362;2024-02-23T08:32:12;165642.75;;;13.21;54.10
41688;BME280;27371;42.686;23.362;2024-02-23T08:34:38;165466.09;;;12.53;55.29
41688;BME280;27371;42.686;23.362;2024-02-23T08:37:04;165339.00;;;12.04;57.36
41688;BME280;27371;42.686;23.362;2024-02-23T08:39:30;165309.59;;;11.93;57.35
41688;BME280;27371;42.686;23.362;2024-02-23T08:41:55;165313.63;;;11.95;57.79
41688;BME280;27371;42.686;23.362;2024-02-23T08:44:21;165290.88;;;11.86;58.05
41688;BME280;27371;42.686;23.362;2024-02-23T08:46:47;165190.53;;;11.48;58.07
41688;BME280;27371;42.686;23.362;2024-02-23T08:49:13;165359.06;;;12.12;57.41
41688;BME280;27371;42.686;23.362;2024-02-23T08:51:39;165407.25;;;12.31;56.68
41688;BME280;27371;42.686;23.362;2024-02-23T08:54:06;165500.91;;;12.66;55.77
41688;BME280;27371;42.686;23.362;2024-02-23T08:56:37;165562.44;;;12.90;54.20
41688;BME280;27371;42.686;23.362;2024-02-23T08:59:04;165672.25;;;13.32;53.97
41688;BME280;27371;42.686;23.362;2024-02-23T09:01:30;165735.13;;;13.56;52.89
41688;BME280;27371;42.686;23.362;2024-02-23T09:03:55;165724.44;;;13.52;51.66
41688;BME280;27371;42.686;23.362;2024-02-23T09:06:21;165827.53;;;13.91;51.04
41688;BME280;27371;42.686;23.362;2024-02-23T09:08:46;165814.13;;;13.86;51.60
41688;BME280;27371;42.686;23.362;2024-02-23T09:11:12;165885.09;;;14.13;49.65
41688;BME280;27371;42.686;23.362;2024-02-23T09:13:39;165934.66;;;14.32;49.71
41688;BME280;27371;42.686;23.362;2024-02-23T09:16:07;165938.69;;;14.34;48.78
41688;BME280;27371;42.686;23.362;2024-02-23T09:18:34;165977.50;;;14.48;49.07
41688;BME280;27371;42.686;23.362;2024-02-23T09:21:00;165972.16;;;14.46;47.56
41688;BME280;27371;42.686;23.362;2024-02-23T09:23:26;165804.75;;;13.82;48.68
41688;BME280;27371;42.686;23.362;2024-02-23T09:25:51;165665.56;;;13.29;49.44
41688;BME280;27371;42.686;23.362;2024-02-23T09:28:17;165607.97;;;13.07;49.67
41688;BME280;27371;42.686;23.362;2024-02-23T09:30:42;165597.22;;;13.03;49.57
41688;BME280;27371;42.686;23.362;2024-02-23T09:33:08;165630.69;;;13.16;49.22
41688;BME280;27371;42.686;23.362;2024-02-23T09:35:33;165728.44;;;13.53;48.18
41688;BME280;27371;42.686;23.362;2024-02-23T09:37:59;165830.22;;;13.92;47.08
41688;BME280;27371;42.686;23.362;2024-02-23T09:40:25;165895.84;;;14.17;46.67
41688;BME280;27371;42.686;23.362;2024-02-23T09:42:55;165861.00;;;14.04;46.36
41688;BME280;27371;42.686;23.362;2024-02-23T09:45:25;165898.50;;;14.18;45.73
41688;BME280;27371;42.686;23.362;2024-02-23T09:47:53;165903.88;;;14.20;45.90
41688;BME280;27371;42.686;23.362;2024-02-23T09:50:22;165978.84;;;14.49;45.39
41688;BME280;27371;42.686;23.362;2024-02-23T09:52:48;166070.00;;;14.84;45.16
41688;BME280;27371;42.686;23.362;2024-02-23T09:55:21;166123.56;;;15.04;43.40
41688;BME280;27371;42.686;23.362;2024-02-23T09:57:48;166116.88;;;15.02;43.11
41688;BME280;27371;42.686;23.362;2024-02-23T10:00:16;166107.50;;;14.98;43.33
41688;BME280;27371;42.686;23.362;2024-02-23T10:02:43;166139.63;;;15.10;42.57
41688;BME280;27371;42.686;23.362;2024-02-23T10:05:10;166146.34;;;15.13;42.81
41688;BME280;27371;42.686;23.362;2024-02-23T10:07:37;166201.28;;;15.34;42.72
41688;BME280;27371;42.686;23.362;2024-02-23T10:10:06;166216.03;;;15.40;42.23
41688;BME280;27371;42.686;23.362;2024-02-23T10:12:33;166190.56;;;15.30;41.99
41688;BME280;27371;42.686;23.362;2024-02-23T10:14:59;166098.13;;;14.95;42.82
41688;BME280;27371;42.686;23.362;2024-02-23T10:17:24;166029.78;;;14.68;43.21
41688;BME280;27371;42.686;23.362;2024-02-23T10:19:50;165917.25;;;14.25;43.56
41688;BME280;27371;42.686;23.362;2024-02-23T10:22:15;165865.00;;;14.06;44.42
41688;BME280;27371;42.686;23.362;2024-02-23T10:24:42;165953.44;;;14.39;43.38
41688;BME280;27371;42.686;23.362;2024-02-23T10:27:08;166016.38;;;14.63;43.59
41688;BME280;27371;42.686;23.362;2024-02-23T10:29:33;166060.59;;;14.80;42.82
41688;BME280;27371;42.686;23.362;2024-02-23T10:32:01;166135.66;;;15.09;42.56
41688;BME280;27371;42.686;23.362;2024-02-23T10:34:27;166206.66;;;15.36;41.30
41688;BME280;27371;42.686;23.362;2024-02-23T10:36:55;166212.00;;;15.38;41.20
41688;BME280;27371;42.686;23.362;2024-02-23T10:39:24;166237.47;;;15.48;41.03
41688;BME280;27371;42.686;23.362;2024-02-23T10:42:02;166238.81;;;15.48;41.03
41688;BME280;27371;42.686;23.362;2024-02-23T10:44:29;166197.25;;;15.32;41.84
41688;BME280;27371;42.686;23.362;2024-02-23T10:46:55;166198.63;;;15.33;41.11
41688;BME280;27371;42.686;23.362;2024-02-23T10:49:24;166201.28;;;15.34;40.92
41688;BME280;27371;42.686;23.362;2024-02-23T10:51:53;166217.38;;;15.40;41.14
41688;BME280;27371;42.686;23.362;2024-02-23T10:54:20;166258.91;;;15.56;40.71
41688;BME280;27371;42.686;23.362;2024-02-23T10:56:49;166281.69;;;15.65;40.43
41688;BME280;27371;42.686;23.362;2024-02-23T10:59:15;166199.97;;;15.33;39.53
41688;BME280;27371;42.686;23.362;2024-02-23T11:01:54;166205.34;;;15.35;39.57
41688;BME280;27371;42.686;23.362;2024-02-23T11:04:23;166118.19;;;15.02;40.68
41688;BME280;27371;42.686;23.362;2024-02-23T11:06:56;166091.44;;;14.92;39.81
41688;BME280;27371;42.686;23.362;2024-02-23T11:09:31;166095.44;;;14.93;39.87
41688;BME280;27371;42.686;23.362;2024-02-23T11:11:58;166102.13;;;14.96;39.90
41688;BME280;27371;42.686;23.362;2024-02-23T11:14:37;166150.38;;;15.14;39.70
41688;BME280;27371;42.686;23.362;2024-02-23T11:17:03;166202.63;;;15.34;39.56
41688;BME280;27371;42.686;23.362;2024-02-23T11:19:36;166244.19;;;15.50;39.31
41688;BME280;27371;42.686;23.362;2024-02-23T11:22:03;166289.72;;;15.68;38.88
41688;BME280;27371;42.686;23.362;2024-02-23T11:24:30;166280.38;;;15.64;38.39
41688;BME280;27371;42.686;23.362;2024-02-23T11:27:00;166301.88;;;15.72;38.64
41688;BME280;27371;42.686;23.362;2024-02-23T11:29:33;166392.97;;;16.07;37.56
41688;BME280;27371;42.686;23.362;2024-02-23T11:32:00;166401.06;;;16.10;37.06
41688;BME280;27371;42.686;23.362;2024-02-23T11:34:29;166423.84;;;16.19;36.72
41688;BME280;27371;42.686;23.362;2024-02-23T11:36:55;166435.88;;;16.23;36.22
41688;BME280;27371;42.686;23.362;2024-02-23T11:39:23;166445.31;;;16.27;36.49
41688;BME280;27371;42.686;23.362;2024-02-23T11:41:49;166458.72;;;16.32;36.16
41688;BME280;27371;42.686;23.362;2024-02-23T11:44:15;166477.47;;;16.39;36.18
41688;BME280;27371;42.686;23.362;2024-02-23T11:46:43;166439.94;;;16.25;35.88
41688;BME280;27371;42.686;23.362;2024-02-23T11:49:08;166359.50;;;15.94;36.58
41688;BME280;27371;42.686;23.362;2024-02-23T11:51:35;166405.06;;;16.12;36.52
41688;BME280;27371;42.686;23.362;2024-02-23T11:54:01;166316.59;;;15.78;36.97
41688;BME280;27371;42.686;23.362;2024-02-23T11:56:27;166262.91;;;15.57;37.36
41688;BME280;27371;42.686;23.362;2024-02-23T11:58:53;166252.22;;;15.53;37.38
41688;BME280;27371;42.686;23.362;2024-02-23T12:01:19;166182.50;;;15.27;37.84
41688;BME280;27371;42.686;23.362;2024-02-23T12:03:45;166272.31;;;15.61;37.48
41688;BME280;27371;42.686;23.362;2024-02-23T12:06:11;166334.00;;;15.85;36.69
41688;BME280;27371;42.686;23.362;2024-02-23T12:08:38;166372.91;;;15.99;37.01
41688;BME280;27371;42.686;23.362;2024-02-23T12:11:08;166456.00;;;16.31;36.18
41688;BME280;27371;42.686;23.362;2024-02-23T12:13:35;166516.38;;;16.54;35.49
41688;BME280;27371;42.686;23.362;2024-02-23T12:16:01;166574.03;;;16.76;35.49
41688;BME280;27371;42.686;23.362;2024-02-23T12:18:27;166587.47;;;16.81;34.14
41688;BME280;27371;42.686;23.362;2024-02-23T12:20:59;166615.63;;;16.92;33.12
41688;BME280;27371;42.686;23.362;2024-02-23T12:23:26;166564.63;;;16.73;33.17
41688;BME280;27371;42.686;23.362;2024-02-23T12:25:53;166559.25;;;16.70;33.27
41688;BME280;27371;42.686;23.362;2024-02-23T12:28:20;166560.63;;;16.71;32.95
41688;BME280;27371;42.686;23.362;2024-02-23T12:30:45;166525.75;;;16.58;33.60
41688;BME280;27371;42.686;23.362;2024-02-23T12:33:15;166519.03;;;16.55;34.10
41688;BME280;27371;42.686;23.362;2024-02-23T12:35:41;166473.47;;;16.38;34.79
41688;BME280;27371;42.686;23.362;2024-02-23T12:38:06;166452.00;;;16.30;34.85
41688;BME280;27371;42.686;23.362;2024-02-23T12:40:32;166421.13;;;16.18;35.49
41688;BME280;27371;42.686;23.362;2024-02-23T12:42:57;166401.06;;;16.10;35.06
41688;BME280;27371;42.686;23.362;2024-02-23T12:45:23;166423.84;;;16.19;34.98